sensor_id;sensor_type;location;lat;lon;timestamp;pressure;altitude;pressure_sealevel;temperature;humidity
71764;BME280;59602;52.142;5.408;2023-05-23T00:02:16;102031.53;;;16.66;76.59
71764;BME280;59602;52.142;5.408;2023-05-23T00:04:42;102031.13;;;16.60;76.82
71764;BME280;59602;52.142;5.408;2023-05-23T00:07:09;102039.78;;;16.48;76.85
71764;BME280;59602;52.142;5.408;2023-05-23T00:09:36;102034.66;;;16.46;77.41
71764;BME280;59602;52.142;5.408;2023-05-23T00:12:03;102038.16;;;16.43;77.21
71764;BME280;59602;52.142;5.408;2023-05-23T00:14:30;102034.63;;;16.35;77.57
71764;BME280;59602;52.142;5.408;2023-05-23T00:16:59;102025.22;;;16.33;77.74
71764;BME280;59602;52.142;5.408;2023-05-23T00:19:27;102027.19;;;16.32;77.87
71764;BME280;59602;52.142;5.408;2023-05-23T00:21:54;102036.19;;;16.29;78.13
71764;BME280;59602;52.142;5.408;2023-05-23T00:24:22;102035.41;;;16.29;78.03
71764;BME280;59602;52.142;5.408;2023-05-23T00:26:48;102040.50;;;16.27;78.17
71764;BME280;59602;52.142;5.408;2023-05-23T00:29:15;102044.03;;;16.24;78.03
71764;BME280;59602;52.142;5.408;2023-05-23T00:31:43;102050.66;;;16.15;78.38
71764;BME280;59602;52.142;5.408;2023-05-23T00:34:13;102047.91;;;16.12;78.37
71764;BME280;59602;52.142;5.408;2023-05-23T00:36:40;102058.50;;;16.06;78.17
71764;BME280;59602;52.142;5.408;2023-05-23T00:39:08;102047.50;;;16.06;78.64
71764;BME280;59602;52.142;5.408;2023-05-23T00:41:46;102051.03;;;16.07;79.14
71764;BME280;59602;52.142;5.408;2023-05-23T00:44:17;102058.50;;;16.10;79.07
71764;BME280;59602;52.142;5.408;2023-05-23T00:46:48;102056.53;;;16.03;79.68
71764;BME280;59602;52.142;5.408;2023-05-23T00:49:16;102057.66;;;15.95;79.50
71764;BME280;59602;52.142;5.408;2023-05-23T00:51:45;102058.81;;;15.83;79.92
71764;BME280;59602;52.142;5.408;2023-05-23T00:54:12;102062.31;;;15.80;80.12
71764;BME280;59602;52.142;5.408;2023-05-23T00:56:40;102065.44;;;15.79;79.61
71764;BME280;59602;52.142;5.408;2023-05-23T00:59:09;102063.47;;;15.72;79.72
71764;BME280;59602;52.142;5.408;2023-05-23T01:01:36;102062.22;;;15.66;80.10
71764;BME280;59602;52.142;5.408;2023-05-23T01:04:03;102059.84;;;15.64;80.23
71764;BME280;59602;52.142;5.408;2023-05-23T01:06:30;102062.97;;;15.59;80.54
71764;BME280;59602;52.142;5.408;2023-05-23T01:08:58;102059.84;;;15.64;80.75
71764;BME280;59602;52.142;5.408;2023-05-23T01:11:37;102054.81;;;15.70;80.58
71764;BME280;59602;52.142;5.408;2023-05-23T01:14:11;102055.94;;;15.69;81.04
71764;BME280;59602;52.142;5.408;2023-05-23T01:16:47;102061.06;;;15.70;81.44
71764;BME280;59602;52.142;5.408;2023-05-23T01:22:20;102056.78;;;15.73;81.02
71764;BME280;59602;52.142;5.408;2023-05-23T01:24:54;102053.66;;;15.71;80.66
71764;BME280;59602;52.142;5.408;2023-05-23T01:27:40;102061.44;;;15.69;80.63
71764;BME280;59602;52.142;5.408;2023-05-23T01:30:12;102060.25;;;15.66;80.48
71764;BME280;59602;52.142;5.408;2023-05-23T01:32:39;102059.47;;;15.66;80.73
71764;BME280;59602;52.142;5.408;2023-05-23T01:35:09;102055.56;;;15.70;80.96
71764;BME280;59602;52.142;5.408;2023-05-23T01:37:35;102059.16;;;15.74;81.34
71764;BME280;59602;52.142;5.408;2023-05-23T01:40:02;102050.53;;;15.72;80.75
71764;BME280;59602;52.142;5.408;2023-05-23T01:42:30;102057.50;;;15.66;80.75
71764;BME280;59602;52.142;5.408;2023-05-23T01:44:56;102060.31;;;15.73;81.08
71764;BME280;59602;52.142;5.408;2023-05-23T01:47:25;102054.44;;;15.71;80.93
71764;BME280;59602;52.142;5.408;2023-05-23T01:49:52;102062.66;;;15.71;81.19
71764;BME280;59602;52.142;5.408;2023-05-23T01:52:21;102058.69;;;15.65;80.51
71764;BME280;59602;52.142;5.408;2023-05-23T01:54:48;102061.03;;;15.63;80.88
71764;BME280;59602;52.142;5.408;2023-05-23T01:57:16;102067.28;;;15.64;80.53
71764;BME280;59602;52.142;5.408;2023-05-23T01:59:43;102064.53;;;15.60;80.43
71764;BME280;59602;52.142;5.408;2023-05-23T02:02:10;102072.34;;;15.58;80.74
71764;BME280;59602;52.142;5.408;2023-05-23T02:04:36;102076.28;;;15.57;80.37
71764;BME280;59602;52.142;5.408;2023-05-23T02:07:03;102074.69;;;15.56;80.61
71764;BME280;59602;52.142;5.408;2023-05-23T02:09:30;102077.81;;;15.58;80.31
71764;BME280;59602;52.142;5.408;2023-05-23T02:11:56;102080.22;;;15.63;80.24
71764;BME280;59602;52.142;5.408;2023-05-23T02:14:24;102081.78;;;15.61;79.79
71764;BME280;59602;52.142;5.408;2023-05-23T02:16:53;102084.91;;;15.59;79.88
71764;BME280;59602;52.142;5.408;2023-05-23T02:19:20;102086.47;;;15.60;79.72
71764;BME280;59602;52.142;5.408;2023-05-23T02:21:48;102090.00;;;15.64;79.11
71764;BME280;59602;52.142;5.408;2023-05-23T02:24:14;102084.91;;;15.59;79.24
71764;BME280;59602;52.142;5.408;2023-05-23T02:26:41;102089.97;;;15.57;79.38
71764;BME280;59602;52.142;5.408;2023-05-23T02:29:07;102084.84;;;15.48;79.53
71764;BME280;59602;52.142;5.408;2023-05-23T02:31:35;102085.22;;;15.47;80.35
71764;BME280;59602;52.142;5.408;2023-05-23T02:34:01;102089.53;;;15.51;79.79
71764;BME280;59602;52.142;5.408;2023-05-23T02:36:28;102084.06;;;15.48;79.86
71764;BME280;59602;52.142;5.408;2023-05-23T02:38:54;102092.28;;;15.48;80.06
71764;BME280;59602;52.142;5.408;2023-05-23T02:41:22;102098.16;;;15.53;79.94
71764;BME280;59602;52.142;5.408;2023-05-23T02:43:48;102104.44;;;15.50;79.33
71764;BME280;59602;52.142;5.408;2023-05-23T02:46:15;102098.53;;;15.48;79.76
71764;BME280;59602;52.142;5.408;2023-05-23T02:48:41;102105.97;;;15.48;79.27
71764;BME280;59602;52.142;5.408;2023-05-23T02:51:08;102107.13;;;15.47;79.08
71764;BME280;59602;52.142;5.408;2023-05-23T02:53:34;102099.72;;;15.51;79.31
71764;BME280;59602;52.142;5.408;2023-05-23T02:56:01;102106.00;;;15.51;79.26
71764;BME280;59602;52.142;5.408;2023-05-23T02:58:28;102106.03;;;15.55;79.18
71764;BME280;59602;52.142;5.408;2023-05-23T03:00:55;102105.25;;;15.58;79.07
71764;BME280;59602;52.142;5.408;2023-05-23T03:03:21;102106.47;;;15.61;79.02
71764;BME280;59602;52.142;5.408;2023-05-23T03:05:48;102102.91;;;15.56;78.61
71764;BME280;59602;52.142;5.408;2023-05-23T03:08:15;102104.06;;;15.55;78.73
71764;BME280;59602;52.142;5.408;2023-05-23T03:10:41;102102.47;;;15.51;78.66
71764;BME280;59602;52.142;5.408;2023-05-23T03:13:08;102105.97;;;15.48;78.89
71764;BME280;59602;52.142;5.408;2023-05-23T03:15:35;102098.91;;;15.47;79.09
71764;BME280;59602;52.142;5.408;2023-05-23T03:18:01;102103.66;;;15.50;79.31
71764;BME280;59602;52.142;5.408;2023-05-23T03:20:28;102102.88;;;15.53;79.11
71764;BME280;59602;52.142;5.408;2023-05-23T03:22:54;102111.88;;;15.50;79.00
71764;BME280;59602;52.142;5.408;2023-05-23T03:25:21;102111.88;;;15.50;78.53
71764;BME280;59602;52.142;5.408;2023-05-23T03:27:47;102106.41;;;15.53;78.63
71764;BME280;59602;52.142;5.408;2023-05-23T03:30:14;102113.03;;;15.49;78.60
71764;BME280;59602;52.142;5.408;2023-05-23T03:32:41;102113.81;;;15.46;78.70
71764;BME280;59602;52.142;5.408;2023-05-23T03:35:08;102115.75;;;15.49;78.54
71764;BME280;59602;52.142;5.408;2023-05-23T03:37:35;102118.50;;;15.49;78.40
71764;BME280;59602;52.142;5.408;2023-05-23T03:40:01;102117.34;;;15.50;78.71
71764;BME280;59602;52.142;5.408;2023-05-23T03:42:29;102118.91;;;15.51;78.75
71764;BME280;59602;52.142;5.408;2023-05-23T03:44:55;102122.81;;;15.46;78.26
71764;BME280;59602;52.142;5.408;2023-05-23T03:47:22;102128.22;;;15.35;78.08
71764;BME280;59602;52.142;5.408;2023-05-23T03:49:50;102125.38;;;15.25;77.90
71764;BME280;59602;52.142;5.408;2023-05-23T03:52:17;102127.75;;;15.23;78.22
71764;BME280;59602;52.142;5.408;2023-05-23T03:54:43;102130.91;;;15.28;78.35
71764;BME280;59602;52.142;5.408;2023-05-23T03:57:10;102138.66;;;15.19;78.20
71764;BME280;59602;52.142;5.408;2023-05-23T03:59:36;102143.78;;;15.24;78.12
71764;BME280;59602;52.142;5.408;2023-05-23T04:02:03;102140.63;;;15.19;77.79
71764;BME280;59602;52.142;5.408;2023-05-23T04:04:30;102148.00;;;15.14;78.01
71764;BME280;59602;52.142;5.408;2023-05-23T04:06:58;102147.25;;;15.14;77.99
71764;BME280;59602;52.142;5.408;2023-05-23T04:09:24;102142.94;;;15.17;78.20
71764;BME280;59602;52.142;5.408;2023-05-23T04:11:51;102152.31;;;15.12;77.84
71764;BME280;59602;52.142;5.408;2023-05-23T04:14:17;102160.13;;;15.10;78.45
71764;BME280;59602;52.142;5.408;2023-05-23T04:16:47;102156.50;;;14.99;78.75
71764;BME280;59602;52.142;5.408;2023-05-23T04:19:14;102148.22;;;14.91;78.67
71764;BME280;59602;52.142;5.408;2023-05-23T04:21:41;102158.78;;;14.93;78.63
71764;BME280;59602;52.142;5.408;2023-05-23T04:24:08;102164.25;;;14.93;78.63
71764;BME280;59602;52.142;5.408;2023-05-23T04:26:34;102169.72;;;14.93;78.92
71764;BME280;59602;52.142;5.408;2023-05-23T04:29:03;102175.19;;;14.89;78.61
71764;BME280;59602;52.142;5.408;2023-05-23T04:31:31;102173.59;;;14.88;78.39
71764;BME280;59602;52.142;5.408;2023-05-23T04:33:59;102175.97;;;14.90;78.49
71764;BME280;59602;52.142;5.408;2023-05-23T04:36:26;102179.50;;;14.90;78.08
71764;BME280;59602;52.142;5.408;2023-05-23T04:38:52;102184.97;;;14.90;77.74
71764;BME280;59602;52.142;5.408;2023-05-23T04:41:19;102176.75;;;14.90;78.49
71764;BME280;59602;52.142;5.408;2023-05-23T04:43:48;102178.72;;;14.93;77.94
71764;BME280;59602;52.142;5.408;2023-05-23T04:46:19;102181.44;;;14.90;78.07
71764;BME280;59602;52.142;5.408;2023-05-23T04:48:52;102174.38;;;14.89;77.46
71764;BME280;59602;52.142;5.408;2023-05-23T04:51:20;102186.09;;;14.86;78.13
71764;BME280;59602;52.142;5.408;2023-05-23T04:53:50;102185.69;;;14.84;78.14
71764;BME280;59602;52.142;5.408;2023-05-23T04:56:18;102190.00;;;14.85;77.65
71764;BME280;59602;52.142;5.408;2023-05-23T04:58:47;102207.94;;;14.82;77.59
71764;BME280;59602;52.142;5.408;2023-05-23T05:01:14;102205.97;;;14.79;77.88
71764;BME280;59602;52.142;5.408;2023-05-23T05:03:41;102209.91;;;14.82;77.64
71764;BME280;59602;52.142;5.408;2023-05-23T05:06:07;102219.31;;;14.81;77.09
71764;BME280;59602;52.142;5.408;2023-05-23T05:08:34;102220.88;;;14.82;76.92
71764;BME280;59602;52.142;5.408;2023-05-23T05:11:01;102220.03;;;14.78;76.72
71764;BME280;59602;52.142;5.408;2023-05-23T05:13:28;102234.44;;;14.71;76.08
71764;BME280;59602;52.142;5.408;2023-05-23T05:15:55;102224.16;;;14.61;75.71
71764;BME280;59602;52.142;5.408;2023-05-23T05:18:21;102233.19;;;14.65;75.52
71764;BME280;59602;52.142;5.408;2023-05-23T05:20:48;102237.13;;;14.67;74.95
71764;BME280;59602;52.142;5.408;2023-05-23T05:23:14;102238.28;;;14.66;74.34
71764;BME280;59602;52.142;5.408;2023-05-23T05:25:41;102247.25;;;14.63;74.25
71764;BME280;59602;52.142;5.408;2023-05-23T05:28:08;102250.28;;;14.55;73.74
71764;BME280;59602;52.142;5.408;2023-05-23T05:30:34;102247.41;;;14.47;73.62
71764;BME280;59602;52.142;5.408;2023-05-23T05:33:03;102250.88;;;14.44;73.27
71764;BME280;59602;52.142;5.408;2023-05-23T05:35:31;102257.59;;;14.47;72.82
71764;BME280;59602;52.142;5.408;2023-05-23T05:37:59;102260.34;;;14.50;73.50
71764;BME280;59602;52.142;5.408;2023-05-23T05:40:25;102259.75;;;14.61;72.89
71764;BME280;59602;52.142;5.408;2023-05-23T05:42:52;102271.00;;;14.56;72.82
71764;BME280;59602;52.142;5.408;2023-05-23T05:45:18;102266.34;;;14.56;73.28
71764;BME280;59602;52.142;5.408;2023-05-23T05:47:45;102274.22;;;14.61;71.78
71764;BME280;59602;52.142;5.408;2023-05-23T05:50:12;102275.75;;;14.59;71.60
71764;BME280;59602;52.142;5.408;2023-05-23T05:52:39;102276.16;;;14.61;71.19
71764;BME280;59602;52.142;5.408;2023-05-23T05:55:08;102276.47;;;14.56;70.81
71764;BME280;59602;52.142;5.408;2023-05-23T05:57:37;102278.84;;;14.57;71.58
71764;BME280;59602;52.142;5.408;2023-05-23T06:00:06;102282.75;;;14.56;71.34
71764;BME280;59602;52.142;5.408;2023-05-23T06:02:38;102290.63;;;14.61;70.65
71764;BME280;59602;52.142;5.408;2023-05-23T06:05:06;102297.66;;;14.62;71.30
71764;BME280;59602;52.142;5.408;2023-05-23T06:07:33;102292.47;;;14.53;71.12
71764;BME280;59602;52.142;5.408;2023-05-23T06:10:02;102303.78;;;14.52;70.65
71764;BME280;59602;52.142;5.408;2023-05-23T06:12:29;102299.00;;;14.45;70.06
71764;BME280;59602;52.142;5.408;2023-05-23T06:14:55;102302.63;;;14.53;70.39
71764;BME280;59602;52.142;5.408;2023-05-23T06:17:22;102316.06;;;14.62;70.96
71764;BME280;59602;52.142;5.408;2023-05-23T06:19:48;102309.81;;;14.61;70.33
71764;BME280;59602;52.142;5.408;2023-05-23T06:22:15;102306.72;;;14.66;70.32
71764;BME280;59602;52.142;5.408;2023-05-23T06:24:42;102308.78;;;14.73;69.93
71764;BME280;59602;52.142;5.408;2023-05-23T06:27:08;102309.25;;;14.79;70.55
71764;BME280;59602;52.142;5.408;2023-05-23T06:29:35;102309.25;;;14.79;70.07
71764;BME280;59602;52.142;5.408;2023-05-23T06:32:02;102308.69;;;14.66;70.22
71764;BME280;59602;52.142;5.408;2023-05-23T06:34:29;102309.31;;;14.56;70.94
71764;BME280;59602;52.142;5.408;2023-05-23T06:36:55;102313.31;;;14.62;70.53
71764;BME280;59602;52.142;5.408;2023-05-23T06:39:22;102307.91;;;14.65;70.62
71764;BME280;59602;52.142;5.408;2023-05-23T06:41:49;102314.22;;;14.69;70.75
71764;BME280;59602;52.142;5.408;2023-05-23T06:44:16;102312.25;;;14.70;70.87
71764;BME280;59602;52.142;5.408;2023-05-23T06:46:44;102313.00;;;14.67;70.56
71764;BME280;59602;52.142;5.408;2023-05-23T06:49:12;102305.53;;;14.64;71.90
71764;BME280;59602;52.142;5.408;2023-05-23T06:51:40;102314.56;;;14.68;71.09
71764;BME280;59602;52.142;5.408;2023-05-23T06:54:07;102313.00;;;14.67;71.10
71764;BME280;59602;52.142;5.408;2023-05-23T06:56:34;102318.38;;;14.60;71.71
71764;BME280;59602;52.142;5.408;2023-05-23T06:59:00;102312.19;;;14.63;72.12
71764;BME280;59602;52.142;5.408;2023-05-23T07:01:27;102325.06;;;14.62;72.30
71764;BME280;59602;52.142;5.408;2023-05-23T07:03:53;102330.84;;;14.57;72.04
71764;BME280;59602;52.142;5.408;2023-05-23T07:06:20;102330.72;;;14.50;72.70
71764;BME280;59602;52.142;5.408;2023-05-23T07:08:46;102331.94;;;14.52;73.09
71764;BME280;59602;52.142;5.408;2023-05-23T07:11:13;102327.56;;;14.48;73.37
71764;BME280;59602;52.142;5.408;2023-05-23T07:13:40;102329.53;;;14.47;74.27
71764;BME280;59602;52.142;5.408;2023-05-23T07:16:06;102341.63;;;14.46;74.40
71764;BME280;59602;52.142;5.408;2023-05-23T07:18:33;102344.31;;;14.43;nan
71764;BME280;59602;52.142;5.408;2023-05-23T07:21:03;102352.53;;;14.43;73.34
71764;BME280;59602;52.142;5.408;2023-05-23T07:23:32;102349.31;;;14.37;71.73
71764;BME280;59602;52.142;5.408;2023-05-23T07:26:00;102339.03;;;14.30;70.74
71764;BME280;59602;52.142;5.408;2023-05-23T07:28:28;102351.59;;;14.31;71.50
71764;BME280;59602;52.142;5.408;2023-05-23T07:30:55;102344.25;;;14.39;70.53
71764;BME280;59602;52.142;5.408;2023-05-23T07:33:23;102348.88;;;14.58;69.73
71764;BME280;59602;52.142;5.408;2023-05-23T07:35:50;102357.59;;;14.67;68.85
71764;BME280;59602;52.142;5.408;2023-05-23T07:38:17;102360.28;;;14.64;66.88
71764;BME280;59602;52.142;5.408;2023-05-23T07:40:43;102359.56;;;14.67;67.39
71764;BME280;59602;52.142;5.408;2023-05-23T07:43:20;102365.41;;;14.65;67.09
71764;BME280;59602;52.142;5.408;2023-05-23T07:45:47;102362.31;;;14.70;67.35
71764;BME280;59602;52.142;5.408;2023-05-23T07:48:14;102363.50;;;14.69;66.33
71764;BME280;59602;52.142;5.408;2023-05-23T07:50:40;102361.63;;;14.77;65.91
71764;BME280;59602;52.142;5.408;2023-05-23T07:53:07;102362.06;;;14.79;64.88
71764;BME280;59602;52.142;5.408;2023-05-23T07:55:34;102355.47;;;14.84;65.23
71764;BME280;59602;52.142;5.408;2023-05-23T07:58:00;102364.97;;;14.93;65.71
71764;BME280;59602;52.142;5.408;2023-05-23T08:00:28;102365.91;;;15.05;65.17
71764;BME280;59602;52.142;5.408;2023-05-23T08:02:54;102371.25;;;14.94;64.37
71764;BME280;59602;52.142;5.408;2023-05-23T08:05:22;102363.53;;;15.03;64.02
71764;BME280;59602;52.142;5.408;2023-05-23T08:07:49;102362.41;;;15.08;65.14
71764;BME280;59602;52.142;5.408;2023-05-23T08:10:17;102371.78;;;15.07;62.96
71764;BME280;59602;52.142;5.408;2023-05-23T08:12:44;102360.44;;;15.05;62.74
71764;BME280;59602;52.142;5.408;2023-05-23T08:15:10;102376.19;;;15.15;63.13
71764;BME280;59602;52.142;5.408;2023-05-23T08:17:38;102370.81;;;15.22;63.82
71764;BME280;59602;52.142;5.408;2023-05-23T08:20:05;102381.03;;;15.25;63.31
71764;BME280;59602;52.142;5.408;2023-05-23T08:22:34;102378.91;;;15.11;64.30
71764;BME280;59602;52.142;5.408;2023-05-23T08:25:01;102379.66;;;15.08;63.30
71764;BME280;59602;52.142;5.408;2023-05-23T08:27:28;102383.56;;;15.07;62.88
71764;BME280;59602;52.142;5.408;2023-05-23T08:29:55;102387.50;;;15.10;63.89
71764;BME280;59602;52.142;5.408;2023-05-23T08:32:22;102389.19;;;15.22;62.75
71764;BME280;59602;52.142;5.408;2023-05-23T08:34:49;102389.97;;;15.22;62.11
71764;BME280;59602;52.142;5.408;2023-05-23T08:37:15;102386.81;;;15.20;62.12
71764;BME280;59602;52.142;5.408;2023-05-23T08:39:42;102392.34;;;15.24;61.54
71764;BME280;59602;52.142;5.408;2023-05-23T08:42:08;102397.47;;;15.25;61.95
71764;BME280;59602;52.142;5.408;2023-05-23T08:44:35;102401.00;;;15.26;62.59
71764;BME280;59602;52.142;5.408;2023-05-23T08:47:03;102401.00;;;15.26;62.06
71764;BME280;59602;52.142;5.408;2023-05-23T08:49:31;102401.84;;;15.30;61.37
71764;BME280;59602;52.142;5.408;2023-05-23T08:52:01;102404.25;;;15.35;60.79
71764;BME280;59602;52.142;5.408;2023-05-23T08:54:29;102399.16;;;15.37;61.12
71764;BME280;59602;52.142;5.408;2023-05-23T08:56:55;102404.03;;;15.51;61.00
71764;BME280;59602;52.142;5.408;2023-05-23T08:59:22;102419.75;;;15.57;61.14
71764;BME280;59602;52.142;5.408;2023-05-23T09:01:50;102416.19;;;15.53;61.08
71764;BME280;59602;52.142;5.408;2023-05-23T09:04:18;102416.59;;;15.52;60.70
71764;BME280;59602;52.142;5.408;2023-05-23T09:06:45;102415.41;;;15.53;62.90
71764;BME280;59602;52.142;5.408;2023-05-23T09:09:11;102424.81;;;15.52;60.89
71764;BME280;59602;52.142;5.408;2023-05-23T09:11:38;102424.94;;;15.66;61.53
71764;BME280;59602;52.142;5.408;2023-05-23T09:14:06;102422.72;;;15.75;59.53
71764;BME280;59602;52.142;5.408;2023-05-23T09:16:33;102426.34;;;15.83;58.56
71764;BME280;59602;52.142;5.408;2023-05-23T09:19:09;102429.09;;;15.87;59.47
71764;BME280;59602;52.142;5.408;2023-05-23T09:21:42;102437.75;;;15.89;58.82
71764;BME280;59602;52.142;5.408;2023-05-23T09:24:09;102442.09;;;15.90;60.21
71764;BME280;59602;52.142;5.408;2023-05-23T09:26:36;102445.97;;;15.85;59.08
71764;BME280;59602;52.142;5.408;2023-05-23T09:29:05;102442.09;;;15.90;59.32
71764;BME280;59602;52.142;5.408;2023-05-23T09:31:33;102448.84;;;16.00;58.62
71764;BME280;59602;52.142;5.408;2023-05-23T09:34:00;102444.91;;;15.97;58.95
71764;BME280;59602;52.142;5.408;2023-05-23T09:36:28;102458.97;;;15.92;58.89
71764;BME280;59602;52.142;5.408;2023-05-23T09:38:55;102457.03;;;15.96;60.09
71764;BME280;59602;52.142;5.408;2023-05-23T09:41:22;102446.50;;;16.02;58.23
71764;BME280;59602;52.142;5.408;2023-05-23T09:43:52;102443.91;;;16.19;58.62
71764;BME280;59602;52.142;5.408;2023-05-23T09:46:20;102442.09;;;16.34;57.38
71764;BME280;59602;52.142;5.408;2023-05-23T09:48:48;102451.53;;;16.37;56.98
71764;BME280;59602;52.142;5.408;2023-05-23T09:51:18;102438.66;;;16.48;56.86
71764;BME280;59602;52.142;5.408;2023-05-23T09:53:48;102443.03;;;16.56;56.34
71764;BME280;59602;52.142;5.408;2023-05-23T09:56:16;102450.19;;;16.72;55.06
71764;BME280;59602;52.142;5.408;2023-05-23T09:58:49;102455.28;;;16.66;57.41
71764;BME280;59602;52.142;5.408;2023-05-23T10:01:17;102449.28;;;16.53;56.81
71764;BME280;59602;52.142;5.408;2023-05-23T10:03:48;102457.91;;;16.52;56.90
71764;BME280;59602;52.142;5.408;2023-05-23T10:06:23;102459.13;;;16.54;56.11
71764;BME280;59602;52.142;5.408;2023-05-23T10:08:58;102456.50;;;16.76;53.76
71764;BME280;59602;52.142;5.408;2023-05-23T10:14:02;102451.63;;;17.07;53.97
71764;BME280;59602;52.142;5.408;2023-05-23T10:19:33;102460.88;;;16.80;53.60
71764;BME280;59602;52.142;5.408;2023-05-23T10:22:05;102464.34;;;16.70;55.33
71764;BME280;59602;52.142;5.408;2023-05-23T10:24:32;102461.19;;;16.68;56.44
71764;BME280;59602;52.142;5.408;2023-05-23T10:27:00;102474.13;;;16.71;56.90
71764;BME280;59602;52.142;5.408;2023-05-23T10:29:27;102480.00;;;16.66;56.69
71764;BME280;59602;52.142;5.408;2023-05-23T10:31:55;102467.28;;;16.47;56.38
71764;BME280;59602;52.142;5.408;2023-05-23T10:37:00;102466.13;;;16.52;55.13
71764;BME280;59602;52.142;5.408;2023-05-23T10:39:39;102465.81;;;16.60;55.44
71764;BME280;59602;52.142;5.408;2023-05-23T10:42:14;102479.94;;;16.59;54.21
71764;BME280;59602;52.142;5.408;2023-05-23T10:44:42;102478.34;;;16.58;54.27
71764;BME280;59602;52.142;5.408;2023-05-23T10:47:08;102471.03;;;16.73;52.99
71764;BME280;59602;52.142;5.408;2023-05-23T10:50:04;102477.66;;;16.68;54.76
71764;BME280;59602;52.142;5.408;2023-05-23T10:52:38;102474.91;;;16.72;55.09
71764;BME280;59602;52.142;5.408;2023-05-23T10:55:14;102486.28;;;16.67;54.80
71764;BME280;59602;52.142;5.408;2023-05-23T10:57:43;102482.38;;;16.71;54.49
71764;BME280;59602;52.142;5.408;2023-05-23T11:00:15;102488.34;;;16.80;54.10
71764;BME280;59602;52.142;5.408;2023-05-23T11:02:52;102485.47;;;17.25;55.27
71764;BME280;59602;52.142;5.408;2023-05-23T11:05:22;102480.16;;;17.64;54.30
71764;BME280;59602;52.142;5.408;2023-05-23T11:08:10;102482.63;;;17.98;53.14
71764;BME280;59602;52.142;5.408;2023-05-23T11:10:55;102501.50;;;17.96;53.36
71764;BME280;59602;52.142;5.408;2023-05-23T11:13:22;102482.63;;;17.98;50.02
71764;BME280;59602;52.142;5.408;2023-05-23T11:15:49;102468.50;;;18.18;49.36
71764;BME280;59602;52.142;5.408;2023-05-23T11:18:21;102470.06;;;18.37;48.31
71764;BME280;59602;52.142;5.408;2023-05-23T11:20:50;102474.41;;;18.20;49.14
71764;BME280;59602;52.142;5.408;2023-05-23T11:23:20;102476.69;;;17.86;50.61
71764;BME280;59602;52.142;5.408;2023-05-23T11:25:50;102487.19;;;17.58;50.52
71764;BME280;59602;52.142;5.408;2023-05-23T11:28:19;102485.22;;;17.48;50.19
71764;BME280;59602;52.142;5.408;2023-05-23T11:30:47;102478.88;;;17.40;49.55
71764;BME280;59602;52.142;5.408;2023-05-23T11:33:15;102483.59;;;17.40;51.52
71764;BME280;59602;52.142;5.408;2023-05-23T11:35:46;102480.06;;;17.39;52.32
71764;BME280;59602;52.142;5.408;2023-05-23T11:38:14;102492.31;;;17.53;52.24
71764;BME280;59602;52.142;5.408;2023-05-23T11:40:45;102487.22;;;17.55;51.61
71764;BME280;59602;52.142;5.408;2023-05-23T11:43:14;102493.84;;;17.50;52.32
71764;BME280;59602;52.142;5.408;2023-05-23T11:45:43;102492.66;;;17.48;50.64
71764;BME280;59602;52.142;5.408;2023-05-23T11:48:14;102486.41;;;17.54;49.77
71764;BME280;59602;52.142;5.408;2023-05-23T11:50:43;102490.78;;;17.66;49.45
71764;BME280;59602;52.142;5.408;2023-05-23T11:53:12;102488.41;;;17.64;50.03
71764;BME280;59602;52.142;5.408;2023-05-23T11:55:54;102500.56;;;17.53;49.99
71764;BME280;59602;52.142;5.408;2023-05-23T11:58:21;102500.06;;;17.33;50.24
71764;BME280;59602;52.142;5.408;2023-05-23T12:01:03;102494.59;;;17.43;48.68
71764;BME280;59602;52.142;5.408;2023-05-23T12:03:45;102502.09;;;17.47;49.73
71764;BME280;59602;52.142;5.408;2023-05-23T12:06:17;102501.63;;;17.34;50.04
71764;BME280;59602;52.142;5.408;2023-05-23T12:08:45;102503.59;;;17.33;49.84
71764;BME280;59602;52.142;5.408;2023-05-23T12:11:12;102503.25;;;17.46;48.88
71764;BME280;59602;52.142;5.408;2023-05-23T12:13:40;102492.72;;;17.66;46.31
71764;BME280;59602;52.142;5.408;2023-05-23T12:16:12;102498.59;;;17.57;47.80
71764;BME280;59602;52.142;5.408;2023-05-23T12:18:41;102510.28;;;17.36;47.85
71764;BME280;59602;52.142;5.408;2023-05-23T12:21:08;102499.63;;;17.27;49.48
71764;BME280;59602;52.142;5.408;2023-05-23T12:23:38;102506.13;;;17.71;49.41
71764;BME280;59602;52.142;5.408;2023-05-23T12:26:05;102504.28;;;18.21;47.65
71764;BME280;59602;52.142;5.408;2023-05-23T12:28:36;102510.59;;;18.51;48.27
71764;BME280;59602;52.142;5.408;2023-05-23T12:31:20;102513.38;;;18.54;47.51
71764;BME280;59602;52.142;5.408;2023-05-23T12:33:56;102515.34;;;18.29;47.07
71764;BME280;59602;52.142;5.408;2023-05-23T12:36:24;102505.44;;;18.06;46.32
71764;BME280;59602;52.142;5.408;2023-05-23T12:39:01;102512.50;;;18.03;46.16
71764;BME280;59602;52.142;5.408;2023-05-23T12:41:28;102514.53;;;18.32;48.22
71764;BME280;59602;52.142;5.408;2023-05-23T12:43:55;102521.22;;;18.59;45.70
71764;BME280;59602;52.142;5.408;2023-05-23T12:46:24;102510.97;;;18.24;46.78
71764;BME280;59602;52.142;5.408;2023-05-23T12:48:52;102521.19;;;18.09;48.20
71764;BME280;59602;52.142;5.408;2023-05-23T12:51:20;102514.50;;;18.03;48.96
71764;BME280;59602;52.142;5.408;2023-05-23T12:53:47;102521.41;;;17.64;48.98
71764;BME280;59602;52.142;5.408;2023-05-23T12:56:13;102535.84;;;17.43;49.00
71764;BME280;59602;52.142;5.408;2023-05-23T12:58:40;102524.41;;;17.34;49.39
71764;BME280;59602;52.142;5.408;2023-05-23T13:01:07;102521.34;;;17.50;47.93
71764;BME280;59602;52.142;5.408;2023-05-23T13:03:34;102504.88;;;17.54;48.05
71764;BME280;59602;52.142;5.408;2023-05-23T13:06:04;102500.16;;;17.51;48.77
71764;BME280;59602;52.142;5.408;2023-05-23T13:08:31;102506.47;;;17.62;50.25